Time;durP1;ratioP1;P1;durP2;ratioP2;P2;SDS_P1;SDS_P2;PMS_P1;PMS_P2;Temp;Humidity;BMP_temperature;BMP_pressure;BME280_temperature;BME280_humidity;BME280_pressure;Samples;Min_cycle;Max_cycle;Signal;HPM_P1;HPM_P2
2021/08/06 00:00:12;;;;;;;1.38;0.90;;;20.40;99.90;;;;;;4973180;28;20174;-80
2021/08/06 00:02:38;;;;;;;2.67;0.90;;;20.30;99.90;;;;;;4974374;28;20166;-82
2021/08/06 00:05:04;;;;;;;1.33;1.17;;;20.30;99.90;;;;;;4973457;28;20166;-81
2021/08/06 00:07:30;;;;;;;1.27;1.00;;;20.40;99.90;;;;;;4973984;28;20197;-79
2021/08/06 00:09:57;;;;;;;1.17;1.02;;;20.50;99.90;;;;;;4974292;28;20170;-79
2021/08/06 00:12:22;;;;;;;1.95;1.10;;;20.40;99.90;;;;;;4976081;28;20223;-82
2021/08/06 00:14:48;;;;;;;2.17;1.10;;;20.30;99.90;;;;;;4977331;28;20217;-80
2021/08/06 00:17:13;;;;;;;1.40;0.88;;;20.30;99.90;;;;;;4978280;28;20193;-80
2021/08/06 00:19:39;;;;;;;6.57;1.10;;;20.30;99.90;;;;;;4976512;28;20177;-79
2021/08/06 00:22:05;;;;;;;1.63;1.35;;;20.30;99.90;;;;;;4977059;28;20685;-81
2021/08/06 00:24:30;;;;;;;3.90;1.95;;;20.30;99.90;;;;;;4976002;28;20165;-81
2021/08/06 00:26:56;;;;;;;0.98;0.88;;;19.80;99.90;;;;;;4975483;28;20646;-80
2021/08/06 00:29:22;;;;;;;4.47;1.38;;;19.60;99.90;;;;;;4976908;28;20150;-82
2021/08/06 00:31:48;;;;;;;5.72;1.13;;;19.60;99.90;;;;;;4977731;28;20256;-81
2021/08/06 00:34:13;;;;;;;0.93;0.93;;;19.60;99.90;;;;;;4977358;28;20605;-79
2021/08/06 00:36:39;;;;;;;4.30;1.40;;;19.40;99.90;;;;;;4978753;28;20284;-80
2021/08/06 00:39:05;;;;;;;4.03;1.60;;;19.10;99.90;;;;;;4978565;28;20174;-79
2021/08/06 00:41:30;;;;;;;1.83;1.25;;;19.10;99.90;;;;;;4975938;28;20197;-83
2021/08/06 00:43:56;;;;;;;1.20;1.10;;;19.10;99.90;;;;;;4975883;28;20201;-80
2021/08/06 00:46:22;;;;;;;4.63;1.70;;;19.30;99.90;;;;;;4977008;28;20261;-83
2021/08/06 00:48:48;;;;;;;2.70;1.27;;;19.40;99.90;;;;;;4975590;28;20593;-85
2021/08/06 00:51:14;;;;;;;1.02;0.90;;;19.50;99.90;;;;;;4975624;28;20174;-81
2021/08/06 00:53:40;;;;;;;3.70;1.38;;;19.70;99.90;;;;;;4976705;28;20176;-80
2021/08/06 00:56:07;;;;;;;1.33;1.23;;;19.60;99.90;;;;;;4976208;28;20221;-79
2021/08/06 00:58:33;;;;;;;1.50;1.17;;;19.60;99.90;;;;;;4975272;28;20223;-83
2021/08/06 01:00:59;;;;;;;6.90;1.60;;;19.60;99.90;;;;;;4977003;28;20170;-84
2021/08/06 01:03:36;;;;;;;2.22;1.23;;;19.80;99.90;;;;;;4975638;28;20513;-89
2021/08/06 01:06:14;;;;;;;2.45;1.48;;;19.90;99.90;;;;;;4976812;28;20194;-83
2021/08/06 01:09:02;;;;;;;2.67;1.33;;;20.10;99.90;;;;;;4977009;28;20165;-85
2021/08/06 01:11:30;;;;;;;1.35;1.25;;;20.00;99.90;;;;;;4977494;28;20582;-83
2021/08/06 01:13:58;;;;;;;1.20;1.10;;;20.10;99.90;;;;;;4977011;28;20240;-84
2021/08/06 01:16:32;;;;;;;5.00;1.40;;;20.10;99.90;;;;;;4975276;28;20213;-83
2021/08/06 01:19:27;;;;;;;1.40;1.30;;;20.00;99.90;;;;;;4976517;28;20530;-81
2021/08/06 01:22:37;;;;;;;2.67;1.30;;;19.90;99.90;;;;;;4969604;28;20291;-83
2021/08/06 01:25:14;;;;;;;1.33;1.23;;;19.80;99.90;;;;;;4919975;29;20640;-84
2021/08/06 01:27:45;;;;;;;2.10;1.30;;;19.80;99.90;;;;;;4973076;28;20193;-80
2021/08/06 01:30:13;;;;;;;1.80;1.25;;;19.90;99.90;;;;;;4974469;28;20170;-81
2021/08/06 01:32:39;;;;;;;1.60;1.20;;;20.10;99.90;;;;;;4974394;28;20547;-82
2021/08/06 01:35:08;;;;;;;1.90;1.30;;;20.10;99.90;;;;;;4975652;28;20626;-80
2021/08/06 01:37:33;;;;;;;2.72;1.27;;;20.00;99.90;;;;;;4975699;28;20186;-83
2021/08/06 01:40:03;;;;;;;3.33;1.73;;;20.00;99.90;;;;;;4976144;28;20166;-81
2021/08/06 01:42:53;;;;;;;1.30;1.20;;;19.70;99.90;;;;;;4974809;28;20174;-84
2021/08/06 01:45:23;;;;;;;4.57;1.60;;;19.60;99.90;;;;;;4976174;28;20174;-83
2021/08/06 01:47:52;;;;;;;4.20;1.52;;;19.60;99.90;;;;;;4975215;28;20178;-81
2021/08/06 01:50:24;;;;;;;1.77;1.33;;;19.60;99.90;;;;;;4974730;28;20180;-82
2021/08/06 01:53:01;;;;;;;1.42;1.30;;;19.50;99.90;;;;;;4975844;28;20169;-80
2021/08/06 01:55:46;;;;;;;1.40;1.30;;;19.40;99.90;;;;;;4974334;28;20201;-85
2021/08/06 01:58:13;;;;;;;2.47;1.50;;;19.20;99.90;;;;;;4976124;28;20625;-89
2021/08/06 02:00:40;;;;;;;1.13;1.13;;;19.30;99.90;;;;;;4974936;28;20528;-90
2021/08/06 02:03:07;;;;;;;1.58;1.48;;;19.30;99.90;;;;;;4975169;28;20177;-83
2021/08/06 02:05:34;;;;;;;1.27;1.17;;;19.20;99.90;;;;;;4975596;28;20189;-81
2021/08/06 02:08:02;;;;;;;1.67;1.20;;;19.30;99.90;;;;;;4974288;28;20174;-88
2021/08/06 02:10:29;;;;;;;3.33;1.42;;;19.00;99.90;;;;;;4974873;28;20169;-92
2021/08/06 02:12:55;;;;;;;2.47;1.25;;;18.70;99.90;;;;;;4974750;28;20176;-89
2021/08/06 02:15:20;;;;;;;1.60;1.30;;;18.60;99.90;;;;;;4974410;28;20213;-82
2021/08/06 02:17:47;;;;;;;1.70;1.08;;;18.70;99.90;;;;;;4975167;28;20329;-84
2021/08/06 02:20:13;;;;;;;1.23;1.13;;;18.60;99.90;;;;;;4975469;28;20245;-81
2021/08/06 02:22:42;;;;;;;2.28;1.38;;;18.80;99.90;;;;;;4973973;28;20265;-84
2021/08/06 02:25:09;;;;;;;2.70;1.23;;;18.70;99.90;;;;;;4975599;28;20213;-81
2021/08/06 02:27:37;;;;;;;0.98;0.90;;;19.00;99.90;;;;;;4975002;28;20565;-81
2021/08/06 02:30:04;;;;;;;2.13;0.98;;;18.90;99.90;;;;;;4975140;28;20228;-87
2021/08/06 02:32:30;;;;;;;0.88;0.88;;;18.90;99.90;;;;;;4973425;28;20252;-79
2021/08/06 02:34:57;;;;;;;2.33;0.82;;;18.90;99.90;;;;;;4974108;28;20539;-92
2021/08/06 02:37:23;;;;;;;1.10;1.00;;;19.10;99.90;;;;;;4973999;28;20224;-80
2021/08/06 02:39:49;;;;;;;0.95;0.95;;;19.00;99.90;;;;;;4973466;28;20193;-85
2021/08/06 02:42:15;;;;;;;1.10;1.02;;;19.10;99.90;;;;;;4974317;28;20221;-85
2021/08/06 02:44:41;;;;;;;1.08;0.90;;;19.00;99.90;;;;;;4973802;28;20182;-88
2021/08/06 02:47:08;;;;;;;2.65;1.20;;;19.00;99.90;;;;;;4973788;28;20198;-84
2021/08/06 02:49:35;;;;;;;1.00;0.90;;;19.10;99.90;;;;;;4973693;28;20503;-91
2021/08/06 02:52:04;;;;;;;1.80;1.00;;;19.10;99.90;;;;;;4974586;28;20173;-81
2021/08/06 02:54:30;;;;;;;1.98;1.00;;;19.10;99.90;;;;;;4972893;28;20312;-81
2021/08/06 02:56:56;;;;;;;1.35;1.08;;;19.20;99.90;;;;;;4973145;28;20658;-80
2021/08/06 02:59:22;;;;;;;2.70;1.45;;;19.20;99.90;;;;;;4973060;28;20169;-80
2021/08/06 03:01:48;;;;;;;2.22;1.05;;;19.30;99.90;;;;;;4972935;28;20193;-81
2021/08/06 03:04:13;;;;;;;1.92;1.20;;;19.40;99.90;;;;;;4973340;28;20655;-84
2021/08/06 03:06:39;;;;;;;1.40;1.30;;;19.40;99.90;;;;;;4974495;28;20542;-82
2021/08/06 03:09:05;;;;;;;1.73;1.42;;;19.20;99.90;;;;;;4974502;28;20200;-80
2021/08/06 03:11:31;;;;;;;2.88;1.50;;;19.20;99.90;;;;;;4973400;28;20201;-79
2021/08/06 03:13:56;;;;;;;1.90;1.67;;;19.10;99.90;;;;;;4974275;28;20276;-81
2021/08/06 03:16:22;;;;;;;2.20;1.38;;;19.20;99.90;;;;;;4972701;28;20260;-84
2021/08/06 03:18:48;;;;;;;1.50;1.33;;;19.30;99.90;;;;;;4972996;28;20244;-82
2021/08/06 03:21:13;;;;;;;1.90;1.27;;;19.10;99.90;;;;;;4974507;28;20169;-83
2021/08/06 03:23:39;;;;;;;5.50;1.17;;;18.90;99.90;;;;;;4973234;28;20170;-83
2021/08/06 03:26:06;;;;;;;1.10;1.00;;;18.90;99.90;;;;;;4974293;28;20256;-86
2021/08/06 03:28:32;;;;;;;3.28;1.30;;;18.80;99.90;;;;;;4974517;28;20197;-82
2021/08/06 03:30:58;;;;;;;1.83;1.17;;;18.70;99.90;;;;;;4973063;28;20534;-85
2021/08/06 03:33:24;;;;;;;3.45;1.10;;;18.50;99.90;;;;;;4974327;28;20170;-80
2021/08/06 03:35:49;;;;;;;2.05;1.40;;;18.40;99.90;;;;;;4972559;28;20221;-80
2021/08/06 03:38:20;;;;;;;1.50;1.40;;;18.20;99.90;;;;;;4972556;28;20275;-84
2021/08/06 03:40:47;;;;;;;1.63;1.27;;;18.20;99.90;;;;;;4974104;28;20188;-83
2021/08/06 03:43:13;;;;;;;1.58;1.48;;;18.40;99.90;;;;;;4973920;28;20166;-83
2021/08/06 03:45:39;;;;;;;1.92;1.65;;;18.30;99.90;;;;;;4972864;28;20252;-84
2021/08/06 03:48:05;;;;;;;1.33;1.23;;;18.40;99.90;;;;;;4972700;28;20189;-82
2021/08/06 03:50:31;;;;;;;1.42;1.33;;;18.40;99.90;;;;;;4975484;28;20170;-80
2021/08/06 03:52:57;;;;;;;1.55;1.25;;;18.30;99.90;;;;;;4973690;28;20228;-80
2021/08/06 03:55:23;;;;;;;1.58;1.27;;;18.30;99.90;;;;;;4973017;28;20218;-87
2021/08/06 03:57:55;;;;;;;2.88;1.52;;;18.40;99.90;;;;;;4975276;28;20162;-85
2021/08/06 04:00:22;;;;;;;2.28;1.23;;;18.40;99.90;;;;;;4973112;28;20173;-82
2021/08/06 04:02:48;;;;;;;1.67;1.08;;;18.30;99.90;;;;;;4972592;28;20248;-79
2021/08/06 04:05:14;;;;;;;2.25;2.05;;;18.50;99.90;;;;;;4973311;28;20626;-81
2021/08/06 04:07:48;;;;;;;1.20;1.10;;;18.30;99.90;;;;;;4972822;28;20165;-80
2021/08/06 04:10:16;;;;;;;2.78;1.00;;;18.30;99.90;;;;;;4976518;28;20209;-79
2021/08/06 04:12:42;;;;;;;0.90;0.90;;;18.50;99.90;;;;;;4978151;28;20166;-80
2021/08/06 04:15:08;;;;;;;1.05;0.95;;;18.60;99.90;;;;;;4980990;28;20248;-81
2021/08/06 04:17:34;;;;;;;4.88;1.20;;;18.50;99.90;;;;;;4980482;28;20196;-80
2021/08/06 04:20:00;;;;;;;1.60;0.95;;;18.60;99.90;;;;;;4983886;28;20190;-83
2021/08/06 04:22:27;;;;;;;1.00;1.00;;;18.70;99.90;;;;;;4983811;28;20592;-79
2021/08/06 04:24:53;;;;;;;1.20;1.10;;;18.80;99.90;;;;;;4983222;28;20177;-82
2021/08/06 04:27:18;;;;;;;1.15;0.95;;;18.80;99.90;;;;;;4979779;28;20197;-80
2021/08/06 04:29:44;;;;;;;1.20;1.10;;;18.80;99.90;;;;;;4972549;28;20201;-85
2021/08/06 04:32:09;;;;;;;0.82;0.82;;;18.70;99.90;;;;;;4973806;28;20228;-93
2021/08/06 04:34:35;;;;;;;1.23;1.13;;;18.80;99.90;;;;;;4973979;28;20170;-82
2021/08/06 04:37:01;;;;;;;1.38;1.27;;;18.60;99.90;;;;;;4971915;28;20205;-81
2021/08/06 04:39:26;;;;;;;1.55;1.20;;;18.50;99.90;;;;;;4973074;28;20170;-82
2021/08/06 04:41:52;;;;;;;6.45;1.35;;;18.70;99.90;;;;;;4973620;28;20233;-89
2021/08/06 04:44:18;;;;;;;4.28;1.48;;;18.80;99.90;;;;;;4974651;28;20217;-92
2021/08/06 04:46:44;;;;;;;4.07;1.35;;;18.90;99.90;;;;;;4973081;28;20233;-88
2021/08/06 04:49:10;;;;;;;4.15;1.40;;;18.80;99.90;;;;;;4973249;28;20201;-89
2021/08/06 04:51:36;;;;;;;2.08;1.80;;;18.60;99.90;;;;;;4974534;28;20180;-88
2021/08/06 04:54:02;;;;;;;1.27;1.17;;;18.40;99.90;;;;;;4975241;28;20177;-95
2021/08/06 04:56:27;;;;;;;1.77;1.38;;;18.30;99.90;;;;;;4974463;28;20300;-93
2021/08/06 04:58:53;;;;;;;2.33;1.48;;;18.40;99.90;;;;;;4973986;28;20201;-96
2021/08/06 05:01:18;;;;;;;1.65;1.30;;;18.50;99.90;;;;;;4975571;28;20224;-92
2021/08/06 05:03:44;;;;;;;9.00;1.48;;;18.40;99.90;;;;;;4977869;28;20232;-93
2021/08/06 05:06:10;;;;;;;1.35;1.10;;;18.40;99.90;;;;;;4975999;28;20186;-84
2021/08/06 05:08:38;;;;;;;3.92;1.48;;;18.60;99.90;;;;;;4976241;28;20177;-81
2021/08/06 05:11:04;;;;;;;2.70;1.23;;;18.60;99.90;;;;;;4976797;28;20158;-89
2021/08/06 05:13:30;;;;;;;1.77;1.35;;;18.60;99.90;;;;;;4976974;28;20240;-82
2021/08/06 05:15:55;;;;;;;2.63;1.60;;;18.50;99.90;;;;;;4976827;28;20218;-86
2021/08/06 05:18:21;;;;;;;3.22;1.35;;;18.60;99.90;;;;;;4976480;28;20197;-84
2021/08/06 05:20:47;;;;;;;2.72;1.35;;;18.60;99.90;;;;;;4976818;28;20180;-84
2021/08/06 05:23:12;;;;;;;3.50;1.52;;;18.80;99.90;;;;;;4976170;28;20278;-86
2021/08/06 05:25:38;;;;;;;4.45;1.60;;;18.90;99.90;;;;;;4975243;28;20212;-84
2021/08/06 05:28:04;;;;;;;3.92;1.65;;;19.00;99.90;;;;;;4975660;28;20170;-83
2021/08/06 05:30:30;;;;;;;5.20;1.63;;;18.90;99.90;;;;;;4976986;28;20562;-93
2021/08/06 05:32:55;;;;;;;2.17;1.70;;;18.90;99.90;;;;;;4977576;28;20634;-89
2021/08/06 05:35:21;;;;;;;3.10;1.50;;;19.00;99.90;;;;;;4978100;28;20209;-87
2021/08/06 05:37:47;;;;;;;2.85;2.13;;;19.00;99.90;;;;;;4979854;28;20181;-91
2021/08/06 05:40:13;;;;;;;4.05;1.75;;;19.00;99.90;;;;;;4978415;28;20264;-90
2021/08/06 05:42:39;;;;;;;5.50;1.50;;;18.80;99.90;;;;;;4978944;28;20603;-90
2021/08/06 05:45:06;;;;;;;4.10;1.30;;;19.00;99.90;;;;;;4977854;28;20198;-80
2021/08/06 05:48:01;;;;;;;3.30;1.73;;;19.10;99.90;;;;;;4975524;28;20189;-84
2021/08/06 05:50:28;;;;;;;7.78;1.92;;;19.50;99.90;;;;;;4963971;28;20254;-93
2021/08/06 05:52:54;;;;;;;3.30;1.92;;;19.50;99.90;;;;;;4986395;28;20191;-80
2021/08/06 05:55:20;;;;;;;2.70;1.33;;;19.30;99.90;;;;;;4990152;28;20268;-79
2021/08/06 05:57:46;;;;;;;10.05;1.75;;;19.40;99.90;;;;;;4984012;28;20162;-81
2021/08/06 06:00:14;;;;;;;9.25;2.70;;;19.60;99.90;;;;;;4988602;28;20519;-83
2021/08/06 06:02:40;;;;;;;8.82;1.70;;;20.00;99.90;;;;;;4991738;28;20170;-85
2021/08/06 06:05:06;;;;;;;6.05;1.60;;;20.40;99.90;;;;;;4983986;28;20196;-94
2021/08/06 06:07:40;;;;;;;5.18;1.88;;;20.40;99.90;;;;;;4977027;28;20197;-88
2021/08/06 06:10:06;;;;;;;6.25;1.88;;;20.40;99.90;;;;;;4976480;28;20265;-96
2021/08/06 06:12:32;;;;;;;5.30;1.98;;;20.10;99.90;;;;;;4978012;28;20194;-92
2021/08/06 06:14:57;;;;;;;1.33;1.17;;;20.00;99.90;;;;;;4977925;28;20241;-80
2021/08/06 06:17:23;;;;;;;2.83;1.75;;;19.90;99.90;;;;;;4994897;28;20205;-84
2021/08/06 06:19:51;;;;;;;2.55;1.48;;;19.80;99.90;;;;;;4988290;28;20169;-90
2021/08/06 06:22:16;;;;;;;1.92;1.60;;;19.80;99.90;;;;;;4985716;28;20173;-90
2021/08/06 06:24:42;;;;;;;10.10;2.28;;;19.90;99.90;;;;;;4977849;28;20174;-90
2021/08/06 06:27:09;;;;;;;1.80;1.58;;;20.10;99.90;;;;;;4974790;28;20589;-79
2021/08/06 06:29:35;;;;;;;5.65;1.88;;;20.00;99.90;;;;;;4973452;28;20173;-80
2021/08/06 06:32:00;;;;;;;1.98;1.25;;;19.80;99.90;;;;;;4974846;28;20170;-81
2021/08/06 06:34:26;;;;;;;5.55;1.63;;;20.00;99.90;;;;;;4973353;28;20174;-80
2021/08/06 06:36:51;;;;;;;5.30;1.63;;;20.20;99.90;;;;;;4973042;28;20308;-80
2021/08/06 06:39:17;;;;;;;7.93;2.00;;;20.30;99.90;;;;;;4973310;28;20269;-80
2021/08/06 06:41:43;;;;;;;5.18;1.50;;;20.40;99.90;;;;;;4974319;28;20507;-81
2021/08/06 06:44:08;;;;;;;4.00;1.52;;;20.40;99.90;;;;;;4973034;28;20818;-80
2021/08/06 06:46:34;;;;;;;1.65;1.17;;;20.60;99.90;;;;;;4974130;28;20185;-80
2021/08/06 06:49:00;;;;;;;4.28;1.25;;;21.10;99.90;;;;;;4973977;28;20638;-81
2021/08/06 06:51:25;;;;;;;1.45;1.10;;;21.00;99.90;;;;;;4972901;28;20181;-81
2021/08/06 06:53:51;;;;;;;2.15;1.17;;;21.00;99.90;;;;;;4974312;28;20248;-81
2021/08/06 06:56:16;;;;;;;3.90;1.40;;;20.90;99.90;;;;;;4974240;28;20371;-82
2021/08/06 06:58:42;;;;;;;4.95;1.40;;;20.70;99.90;;;;;;4974804;28;20170;-88
2021/08/06 07:01:08;;;;;;;5.75;1.45;;;20.30;99.90;;;;;;4973592;28;20202;-86
2021/08/06 07:03:34;;;;;;;2.88;1.50;;;20.20;99.90;;;;;;4974217;28;20201;-81
2021/08/06 07:05:59;;;;;;;2.58;1.40;;;20.10;99.90;;;;;;4974116;28;20190;-81
2021/08/06 07:08:25;;;;;;;9.98;1.50;;;19.80;99.90;;;;;;4974220;28;20244;-81
2021/08/06 07:10:51;;;;;;;2.78;1.17;;;19.80;99.90;;;;;;4973523;28;20689;-80
2021/08/06 07:13:16;;;;;;;6.68;1.35;;;20.00;99.90;;;;;;4973896;28;20261;-83
2021/08/06 07:15:42;;;;;;;3.00;0.90;;;20.10;99.90;;;;;;4974856;28;20299;-83
2021/08/06 07:18:11;;;;;;;2.45;1.00;;;20.30;99.90;;;;;;4976806;28;20169;-83
2021/08/06 07:20:37;;;;;;;3.30;1.20;;;20.20;99.90;;;;;;4982036;28;20230;-84
2021/08/06 07:23:03;;;;;;;3.95;1.48;;;20.20;99.90;;;;;;4972872;28;20623;-81
2021/08/06 07:25:28;;;;;;;1.48;1.00;;;20.40;99.90;;;;;;4987331;28;20205;-83
2021/08/06 07:27:54;;;;;;;8.55;1.30;;;20.50;99.90;;;;;;4973354;28;20177;-81
2021/08/06 07:30:20;;;;;;;8.43;1.30;;;20.60;99.90;;;;;;4974413;28;20158;-84
2021/08/06 07:32:46;;;;;;;5.82;1.40;;;20.80;99.90;;;;;;4974367;28;20649;-85
2021/08/06 07:35:12;;;;;;;1.50;0.90;;;20.80;99.90;;;;;;4973178;28;20761;-84
2021/08/06 07:37:40;;;;;;;4.28;1.20;;;20.80;99.90;;;;;;4975060;28;20718;-83
2021/08/06 07:40:06;;;;;;;2.05;1.23;;;20.70;99.90;;;;;;4973364;28;20174;-84
2021/08/06 07:42:32;;;;;;;5.13;0.90;;;20.80;99.90;;;;;;4972179;28;20173;-81
2021/08/06 07:44:57;;;;;;;1.70;1.02;;;21.00;99.90;;;;;;4973182;28;20181;-85
2021/08/06 07:47:23;;;;;;;2.83;0.77;;;21.20;99.90;;;;;;4973407;28;20181;-85
2021/08/06 07:49:49;;;;;;;1.25;1.00;;;21.30;99.90;;;;;;4973310;28;20232;-81
2021/08/06 07:52:14;;;;;;;2.40;1.20;;;21.40;99.90;;;;;;4989084;28;20185;-78
2021/08/06 07:54:41;;;;;;;1.40;1.17;;;21.60;99.90;;;;;;5007611;28;20168;-81
2021/08/06 07:57:07;;;;;;;1.30;1.20;;;21.60;99.90;;;;;;4973167;28;20194;-77
2021/08/06 07:59:32;;;;;;;2.72;1.00;;;21.60;99.90;;;;;;4972114;28;20166;-80
2021/08/06 08:01:59;;;;;;;4.32;1.08;;;21.40;99.90;;;;;;4988943;28;20204;-78
2021/08/06 08:04:24;;;;;;;1.17;1.00;;;21.20;99.90;;;;;;4990702;28;20217;-79
2021/08/06 08:06:50;;;;;;;2.75;1.45;;;21.00;99.90;;;;;;4985131;28;20224;-77
2021/08/06 08:09:16;;;;;;;1.30;1.10;;;20.60;99.90;;;;;;4991393;28;20177;-78
2021/08/06 08:11:41;;;;;;;1.13;0.90;;;20.70;99.90;;;;;;4979785;28;20180;-81
2021/08/06 08:14:07;;;;;;;1.55;1.45;;;20.50;99.90;;;;;;4970461;28;20273;-77
2021/08/06 08:16:33;;;;;;;6.85;1.85;;;20.50;99.90;;;;;;4971179;28;20714;-77
2021/08/06 08:18:59;;;;;;;2.28;1.63;;;20.60;99.90;;;;;;4971671;28;20638;-79
2021/08/06 08:21:25;;;;;;;1.60;1.10;;;20.50;99.90;;;;;;4971272;28;20208;-79
2021/08/06 08:23:51;;;;;;;2.00;1.40;;;20.50;99.90;;;;;;4970785;28;20256;-78
2021/08/06 08:26:17;;;;;;;7.80;1.67;;;20.60;99.90;;;;;;4970241;28;20272;-79
2021/08/06 08:28:42;;;;;;;2.83;1.33;;;20.80;99.90;;;;;;4970031;28;20233;-78
2021/08/06 08:31:08;;;;;;;5.25;1.23;;;20.90;99.90;;;;;;4971419;28;20174;-78
2021/08/06 08:33:33;;;;;;;5.75;1.20;;;21.00;99.90;;;;;;4970214;28;20178;-78
2021/08/06 08:36:00;;;;;;;1.70;1.08;;;21.00;99.90;;;;;;4975027;28;20221;-78
2021/08/06 08:38:25;;;;;;;1.50;1.02;;;21.00;99.90;;;;;;4975088;28;20178;-81
2021/08/06 08:40:54;;;;;;;8.35;1.15;;;20.90;99.90;;;;;;4974553;28;20698;-81
2021/08/06 08:43:20;;;;;;;5.72;1.20;;;21.00;99.90;;;;;;4973254;28;20170;-80
2021/08/06 08:45:47;;;;;;;1.00;0.90;;;21.10;99.90;;;;;;4975221;28;20220;-82
2021/08/06 08:48:13;;;;;;;2.58;1.00;;;21.30;99.90;;;;;;4973506;28;20173;-82
2021/08/06 08:50:41;;;;;;;1.85;0.98;;;21.70;99.90;;;;;;4974802;28;20182;-81
2021/08/06 08:53:07;;;;;;;2.58;0.88;;;21.90;99.90;;;;;;4974649;28;20523;-82
2021/08/06 08:55:34;;;;;;;1.33;1.00;;;22.20;99.90;;;;;;4974649;28;20222;-81
2021/08/06 08:57:59;;;;;;;2.58;0.90;;;22.20;99.90;;;;;;4975114;28;20170;-79
2021/08/06 09:00:25;;;;;;;0.90;0.90;;;21.60;99.90;;;;;;4975033;28;20166;-81
2021/08/06 09:02:51;;;;;;;2.40;0.90;;;21.40;99.90;;;;;;4975273;28;20240;-80
2021/08/06 09:05:25;;;;;;;1.00;0.68;;;21.30;99.90;;;;;;4994816;28;20180;-84
2021/08/06 09:07:50;;;;;;;2.20;1.08;;;21.30;99.90;;;;;;4994764;28;20697;-80
2021/08/06 09:10:24;;;;;;;0.93;0.70;;;21.40;99.90;;;;;;4995365;28;20172;-82
2021/08/06 09:12:57;;;;;;;1.85;0.93;;;21.40;99.90;;;;;;4994236;28;20169;-81
2021/08/06 09:15:43;;;;;;;1.08;0.93;;;21.60;99.90;;;;;;4994102;28;20205;-83
2021/08/06 09:18:27;;;;;;;3.60;0.70;;;21.70;99.90;;;;;;4993126;28;20200;-81
2021/08/06 09:20:54;;;;;;;1.52;0.95;;;21.70;99.90;;;;;;4991101;28;20284;-81
2021/08/06 09:23:37;;;;;;;4.20;1.25;;;21.60;99.90;;;;;;4974728;28;20224;-84
2021/08/06 09:26:03;;;;;;;1.10;0.90;;;21.20;99.90;;;;;;4975428;28;20849;-83
2021/08/06 09:28:28;;;;;;;0.80;0.80;;;21.20;99.90;;;;;;4974551;28;20176;-84
2021/08/06 09:30:55;;;;;;;4.00;0.88;;;21.10;99.90;;;;;;4974862;28;20261;-84
2021/08/06 09:33:32;;;;;;;5.10;0.85;;;20.70;99.90;;;;;;4973270;28;20704;-80
2021/08/06 09:36:11;;;;;;;4.20;0.80;;;20.30;99.90;;;;;;4974513;28;20276;-83
2021/08/06 09:38:37;;;;;;;0.85;0.70;;;20.30;99.90;;;;;;4972850;28;20173;-80
2021/08/06 09:41:03;;;;;;;2.38;0.70;;;20.30;99.90;;;;;;4974523;28;20216;-79
2021/08/06 09:43:29;;;;;;;5.03;1.67;;;20.40;99.90;;;;;;4972710;28;20199;-83
2021/08/06 09:45:55;;;;;;;2.42;1.45;;;20.60;99.90;;;;;;4973950;28;20186;-79
2021/08/06 09:48:27;;;;;;;0.88;0.88;;;20.80;99.90;;;;;;4972557;28;20518;-80
2021/08/06 09:50:54;;;;;;;0.98;0.93;;;21.00;99.90;;;;;;4972431;28;20269;-80
2021/08/06 09:53:25;;;;;;;1.70;0.88;;;21.50;99.90;;;;;;4973899;28;20567;-80
2021/08/06 09:55:51;;;;;;;5.60;1.15;;;22.10;99.90;;;;;;4975426;28;20327;-89
2021/08/06 09:58:22;;;;;;;1.95;1.58;;;22.20;99.90;;;;;;4994616;28;20178;-87
2021/08/06 10:00:50;;;;;;;7.60;1.45;;;22.20;99.90;;;;;;4993314;28;20182;-90
2021/08/06 10:03:30;;;;;;;4.28;1.38;;;22.20;99.90;;;;;;4975308;28;20173;-88
2021/08/06 10:06:10;;;;;;;0.70;0.70;;;21.90;99.90;;;;;;4975678;28;20223;-87
2021/08/06 10:08:36;;;;;;;2.53;1.10;;;21.80;99.90;;;;;;4976766;28;20170;-84
2021/08/06 10:11:02;;;;;;;2.33;1.08;;;21.30;99.90;;;;;;4975998;28;20177;-85
2021/08/06 10:13:28;;;;;;;2.47;1.17;;;21.40;99.90;;;;;;4974180;28;20170;-82
2021/08/06 10:15:55;;;;;;;2.03;1.00;;;21.70;99.90;;;;;;4975219;28;20230;-85
2021/08/06 10:18:21;;;;;;;2.78;1.38;;;21.80;99.90;;;;;;4974037;28;20249;-82
2021/08/06 10:20:50;;;;;;;2.00;1.30;;;21.90;99.90;;;;;;4974280;28;20661;-84
2021/08/06 10:23:16;;;;;;;2.05;0.98;;;22.00;99.90;;;;;;4975544;28;20178;-85
2021/08/06 10:25:42;;;;;;;10.77;1.48;;;22.30;99.90;;;;;;4973944;28;20201;-87
2021/08/06 10:28:08;;;;;;;5.70;1.20;;;22.40;99.90;;;;;;4973505;28;20554;-80
2021/08/06 10:30:36;;;;;;;2.05;1.10;;;22.20;99.90;;;;;;4989902;28;20170;-80
2021/08/06 10:33:28;;;;;;;2.88;1.23;;;22.40;99.90;;;;;;4974696;28;20174;-80
2021/08/06 10:36:05;;;;;;;4.63;0.88;;;22.50;99.90;;;;;;4974900;28;20252;-81
2021/08/06 10:38:41;;;;;;;8.15;1.00;;;22.90;99.90;;;;;;4975437;28;20176;-81
2021/08/06 10:41:19;;;;;;;4.30;1.10;;;22.90;99.90;;;;;;4974398;28;20162;-79
2021/08/06 10:43:58;;;;;;;2.25;1.00;;;23.00;99.90;;;;;;4974147;28;20172;-79
2021/08/06 10:46:24;;;;;;;12.82;1.00;;;23.00;99.90;;;;;;4973007;28;20225;-80
2021/08/06 10:48:52;;;;;;;5.97;0.90;;;23.10;99.90;;;;;;4974554;28;20182;-78
2021/08/06 10:51:19;;;;;;;1.67;0.77;;;23.00;99.90;;;;;;4974662;28;20201;-78
2021/08/06 10:53:54;;;;;;;1.98;0.90;;;23.00;99.90;;;;;;4974550;28;20225;-83
2021/08/06 10:56:24;;;;;;;1.85;0.80;;;23.30;99.90;;;;;;4974559;28;20212;-80
2021/08/06 10:58:53;;;;;;;0.70;0.55;;;23.30;99.90;;;;;;4973523;28;20166;-84
2021/08/06 11:01:25;;;;;;;5.72;0.90;;;23.30;99.90;;;;;;4973419;28;20248;-79
2021/08/06 11:03:56;;;;;;;0.60;0.50;;;23.30;99.90;;;;;;4974309;28;20198;-80
2021/08/06 11:06:41;;;;;;;1.45;0.57;;;22.70;99.90;;;;;;4973286;28;20252;-78
2021/08/06 11:09:08;;;;;;;4.95;0.80;;;22.20;99.90;;;;;;4974303;28;20170;-78
2021/08/06 11:11:47;;;;;;;1.40;0.95;;;22.00;99.90;;;;;;4973684;28;20194;-79
2021/08/06 11:14:17;;;;;;;4.28;0.90;;;21.70;99.90;;;;;;4973316;28;20189;-78
2021/08/06 11:17:04;;;;;;;3.80;0.90;;;21.70;99.90;;;;;;4973820;28;20214;-78
2021/08/06 11:19:50;;;;;;;8.07;0.70;;;21.60;99.90;;;;;;4973864;28;20166;-78
2021/08/06 11:22:21;;;;;;;1.42;0.70;;;21.70;99.90;;;;;;4973089;28;20213;-79
2021/08/06 11:24:50;;;;;;;4.85;0.70;;;21.90;99.90;;;;;;4973885;28;20184;-78
2021/08/06 11:27:17;;;;;;;6.65;1.25;;;21.80;99.90;;;;;;4974547;28;20200;-88
2021/08/06 11:29:43;;;;;;;2.42;0.70;;;21.70;99.90;;;;;;4975476;28;20165;-86
2021/08/06 11:32:14;;;;;;;4.47;0.80;;;21.80;99.90;;;;;;4974930;28;20253;-86
2021/08/06 11:34:53;;;;;;;1.02;0.70;;;21.90;99.90;;;;;;4975303;28;20170;-79
2021/08/06 11:37:20;;;;;;;3.00;1.10;;;21.70;99.90;;;;;;4975043;28;20209;-78
2021/08/06 11:40:07;;;;;;;1.67;1.23;;;22.00;99.90;;;;;;4973540;28;20241;-78
2021/08/06 11:42:33;;;;;;;4.00;0.77;;;22.40;99.90;;;;;;4974827;28;20173;-82
2021/08/06 11:44:59;;;;;;;4.70;0.85;;;22.50;99.90;;;;;;4975043;28;20180;-91
2021/08/06 11:47:35;;;;;;;2.10;0.73;;;22.90;99.90;;;;;;4971387;28;20193;-79
2021/08/06 11:50:01;;;;;;;1.35;0.80;;;23.00;99.90;;;;;;4974629;28;20199;-80
2021/08/06 11:52:37;;;;;;;1.02;0.50;;;23.20;99.90;;;;;;4975158;28;20705;-84
2021/08/06 11:55:04;;;;;;;2.40;0.73;;;23.40;99.90;;;;;;4973303;28;20177;-86
2021/08/06 11:57:44;;;;;;;1.23;0.70;;;23.20;99.90;;;;;;4974895;28;20186;-89
2021/08/06 12:00:23;;;;;;;1.58;0.73;;;23.30;99.90;;;;;;4976455;28;20169;-87
2021/08/06 12:03:18;;;;;;;2.13;0.50;;;23.30;99.90;;;;;;4977565;28;20652;-93
2021/08/06 12:05:49;;;;;;;1.17;0.60;;;22.80;99.90;;;;;;4966790;28;20241;-81
2021/08/06 12:08:25;;;;;;;0.52;0.40;;;22.90;99.90;;;;;;4973053;28;20170;-77
2021/08/06 12:10:54;;;;;;;1.55;0.57;;;23.00;99.90;;;;;;4975531;28;20174;-78
2021/08/06 12:13:24;;;;;;;1.95;0.47;;;23.00;99.90;;;;;;4976090;28;20198;-79
2021/08/06 12:16:23;;;;;;;1.13;0.30;;;23.00;99.90;;;;;;4976738;28;20213;-78
2021/08/06 12:18:55;;;;;;;0.82;0.57;;;23.10;99.90;;;;;;4966366;28;20189;-78
2021/08/06 12:21:41;;;;;;;2.15;1.08;;;23.30;99.90;;;;;;4975967;28;20630;-78
2021/08/06 12:24:15;;;;;;;1.13;0.40;;;23.10;99.90;;;;;;4976612;28;20252;-78
2021/08/06 12:26:48;;;;;;;1.05;0.55;;;23.00;99.90;;;;;;4976709;28;20601;-78
2021/08/06 12:29:14;;;;;;;6.20;0.68;;;23.00;99.90;;;;;;4977122;28;20201;-77
2021/08/06 12:31:49;;;;;;;0.73;0.45;;;22.90;99.90;;;;;;4976595;28;20614;-76
2021/08/06 12:34:20;;;;;;;1.13;0.65;;;23.00;99.90;;;;;;4975230;28;20186;-77
2021/08/06 12:37:11;;;;;;;1.58;0.98;;;23.30;99.90;;;;;;4976643;28;20214;-76
2021/08/06 12:39:52;;;;;;;1.30;0.60;;;23.40;99.90;;;;;;4976350;28;20532;-76
2021/08/06 12:42:30;;;;;;;1.02;0.60;;;23.50;99.90;;;;;;4976450;28;20645;-76
2021/08/06 12:44:57;;;;;;;0.95;0.70;;;23.50;99.90;;;;;;4977169;28;20571;-79
2021/08/06 12:47:24;;;;;;;3.25;0.60;;;23.60;99.90;;;;;;4976848;28;20186;-80
2021/08/06 12:49:57;;;;;;;5.07;0.52;;;23.70;99.90;;;;;;4976966;28;20174;-79
2021/08/06 12:52:35;;;;;;;0.50;0.50;;;23.40;99.90;;;;;;4976209;28;20537;-78